Time;durP1;ratioP1;P1;durP2;ratioP2;P2;SDS_P1;SDS_P2;PMS_P1;PMS_P2;Temp;Humidity;BMP_temperature;BMP_pressure;BME280_temperature;BME280_humidity;BME280_pressure;Samples;Min_cycle;Max_cycle;Signal;HPM_P1;HPM_P2
2023/08/17 00:01:47;;;;;;;0.50;0.50;;;16.60;99.90;;;;;;5028440;28;20068;-74
2023/08/17 00:04:13;;;;;;;0.30;0.30;;;16.60;99.90;;;;;;5026736;28;20029;-74
2023/08/17 00:06:38;;;;;;;0.57;0.57;;;16.60;99.90;;;;;;5023034;28;20095;-74
2023/08/17 00:09:04;;;;;;;23.83;1.03;;;16.60;99.90;;;;;;5033165;28;20037;-74
2023/08/17 00:11:30;;;;;;;0.30;0.30;;;16.60;99.90;;;;;;5032688;28;20124;-74
2023/08/17 00:13:56;;;;;;;0.30;0.30;;;16.60;99.90;;;;;;5028002;28;20045;-74
2023/08/17 00:16:23;;;;;;;0.30;0.30;;;16.60;99.90;;;;;;5029701;28;20064;-74
2023/08/17 00:18:49;;;;;;;0.30;0.30;;;16.60;99.90;;;;;;5023157;28;20367;-74
2023/08/17 00:21:14;;;;;;;2.80;0.70;;;16.50;99.90;;;;;;5020858;28;20125;-74
2023/08/17 00:23:40;;;;;;;0.30;0.30;;;16.50;99.90;;;;;;5017690;28;20124;-75
2023/08/17 00:26:06;;;;;;;0.27;0.27;;;16.50;99.90;;;;;;5022454;28;20056;-75
2023/08/17 00:28:31;;;;;;;0.27;0.27;;;16.50;99.90;;;;;;5026714;28;20372;-75
2023/08/17 00:30:57;;;;;;;0.40;0.40;;;16.50;99.90;;;;;;5029174;28;20436;-73
2023/08/17 00:33:23;;;;;;;0.30;0.30;;;16.50;99.90;;;;;;5032749;28;20473;-74
2023/08/17 00:35:48;;;;;;;0.20;0.20;;;16.40;99.90;;;;;;5027680;28;20037;-73
2023/08/17 00:38:14;;;;;;;0.30;0.30;;;16.40;99.90;;;;;;5019580;28;20048;-77
2023/08/17 00:40:40;;;;;;;0.40;0.40;;;16.40;99.90;;;;;;5032320;28;20029;-74
2023/08/17 00:43:07;;;;;;;0.30;0.30;;;16.40;99.90;;;;;;5032024;28;20045;-73
2023/08/17 00:45:33;;;;;;;0.50;0.50;;;16.30;99.90;;;;;;5033515;28;20491;-75
2023/08/17 00:47:59;;;;;;;0.40;0.40;;;16.30;99.90;;;;;;5033667;28;20041;-74
2023/08/17 00:50:27;;;;;;;0.30;0.30;;;16.30;99.90;;;;;;5033681;28;20037;-74
2023/08/17 00:52:54;;;;;;;0.30;0.30;;;16.30;99.90;;;;;;5033805;28;20044;-77
2023/08/17 00:55:20;;;;;;;;;;;16.30;99.90;;;;;;5034537;28;20358;-74
2023/08/17 00:57:46;;;;;;;0.30;0.30;;;16.30;99.90;;;;;;5032334;28;19970;-75
2023/08/17 01:00:13;;;;;;;0.30;0.30;;;16.30;99.90;;;;;;5016533;28;20075;-73
2023/08/17 01:02:41;;;;;;;0.40;0.40;;;16.30;99.90;;;;;;5014123;28;20040;-76
2023/08/17 01:05:06;;;;;;;0.20;0.20;;;16.30;99.90;;;;;;5013643;28;20045;-74
2023/08/17 01:07:32;;;;;;;0.30;0.30;;;16.30;99.90;;;;;;5013533;28;20045;-74
2023/08/17 01:09:59;;;;;;;0.40;0.30;;;16.40;99.90;;;;;;5032709;28;20046;-74
2023/08/17 01:12:30;;;;;;;0.40;0.40;;;16.40;99.90;;;;;;5037613;28;20122;-75
2023/08/17 01:15:17;;;;;;;0.32;0.32;;;16.40;99.90;;;;;;5026276;28;20034;-74
2023/08/17 01:17:48;;;;;;;0.30;0.30;;;16.40;99.90;;;;;;5030805;28;20053;-74
2023/08/17 01:20:15;;;;;;;0.52;0.52;;;16.40;99.90;;;;;;5020802;28;20363;-74
2023/08/17 01:22:44;;;;;;;0.30;0.30;;;16.40;99.90;;;;;;5019178;28;20068;-76
2023/08/17 01:25:10;;;;;;;0.30;0.30;;;16.30;99.90;;;;;;5029675;28;20045;-73
2023/08/17 01:27:44;;;;;;;0.33;0.30;;;16.40;99.90;;;;;;5019948;28;20036;-75
2023/08/17 01:30:13;;;;;;;0.30;0.30;;;16.30;99.90;;;;;;5023742;28;20043;-77
2023/08/17 01:32:58;;;;;;;0.47;0.47;;;16.30;99.90;;;;;;5024217;28;20121;-77
2023/08/17 01:35:55;;;;;;;0.32;0.32;;;16.40;99.90;;;;;;5047339;28;20048;-76
2023/08/17 01:38:23;;;;;;;0.40;0.40;;;16.30;99.90;;;;;;5027394;28;20051;-72
2023/08/17 01:40:50;;;;;;;0.40;0.40;;;16.30;99.90;;;;;;5031101;28;20033;-74
2023/08/17 01:43:17;;;;;;;0.55;0.50;;;16.30;99.90;;;;;;5030357;28;20497;-71
2023/08/17 01:45:42;;;;;;;0.40;0.40;;;16.30;99.90;;;;;;5021440;28;20049;-72
2023/08/17 01:48:08;;;;;;;0.70;0.60;;;16.30;99.90;;;;;;5030629;28;20087;-73
2023/08/17 01:50:34;;;;;;;0.30;0.30;;;16.30;99.90;;;;;;5027061;28;20486;-74
2023/08/17 01:52:59;;;;;;;0.53;0.53;;;16.30;99.90;;;;;;5027273;28;20459;-74
2023/08/17 01:55:26;;;;;;;0.47;0.47;;;16.30;99.90;;;;;;5030162;28;20037;-75
2023/08/17 01:57:52;;;;;;;0.40;0.40;;;16.30;99.90;;;;;;5027986;28;20046;-73
2023/08/17 02:00:18;;;;;;;0.40;0.40;;;16.30;99.90;;;;;;5016283;28;20050;-74
2023/08/17 02:02:44;;;;;;;0.30;0.30;;;16.30;99.90;;;;;;5026697;28;20047;-75
2023/08/17 02:05:09;;;;;;;0.30;0.30;;;16.30;99.90;;;;;;5031333;28;20125;-73
2023/08/17 02:07:35;;;;;;;0.40;0.40;;;16.30;99.90;;;;;;5024814;28;20057;-75
2023/08/17 02:10:01;;;;;;;0.40;0.40;;;16.30;99.90;;;;;;5026688;28;20045;-74
2023/08/17 02:12:26;;;;;;;0.40;0.40;;;16.20;99.90;;;;;;5020368;28;20048;-76
2023/08/17 02:14:53;;;;;;;0.37;0.37;;;16.20;99.90;;;;;;5025741;28;20073;-75
2023/08/17 02:17:21;;;;;;;0.32;0.32;;;16.20;99.90;;;;;;5019662;28;20042;-74
2023/08/17 02:19:47;;;;;;;0.43;0.43;;;16.20;99.90;;;;;;5031070;28;20052;-74
2023/08/17 02:22:13;;;;;;;0.35;0.35;;;16.20;99.90;;;;;;5033076;28;20042;-75
2023/08/17 02:24:39;;;;;;;0.30;0.30;;;16.20;99.90;;;;;;5022539;28;20046;-75
2023/08/17 02:27:05;;;;;;;0.30;0.30;;;16.20;99.90;;;;;;5027320;28;20363;-74
2023/08/17 02:29:30;;;;;;;0.30;0.30;;;16.20;99.90;;;;;;5023029;28;20100;-75
2023/08/17 02:31:56;;;;;;;0.40;0.40;;;16.20;99.90;;;;;;5018393;28;20137;-75
2023/08/17 02:34:21;;;;;;;0.87;0.70;;;16.20;99.90;;;;;;5034612;28;20541;-75
2023/08/17 02:36:47;;;;;;;0.23;0.23;;;16.20;99.90;;;;;;5026842;28;20108;-73
2023/08/17 02:39:13;;;;;;;0.30;0.30;;;16.20;99.90;;;;;;5034026;28;20045;-74
2023/08/17 02:41:39;;;;;;;0.40;0.40;;;16.10;99.90;;;;;;5036016;28;20036;-73
2023/08/17 02:44:05;;;;;;;0.37;0.37;;;16.20;99.90;;;;;;5027270;28;20037;-75
2023/08/17 02:46:30;;;;;;;0.30;0.30;;;16.20;99.90;;;;;;5016136;28;20038;-76
2023/08/17 02:48:56;;;;;;;0.40;0.40;;;16.10;99.90;;;;;;5016107;28;20042;-74
2023/08/17 02:51:21;;;;;;;0.40;0.40;;;16.10;99.90;;;;;;5016047;28;20042;-74
2023/08/17 02:53:47;;;;;;;0.30;0.30;;;16.10;99.90;;;;;;5017201;28;20042;-74
2023/08/17 02:56:13;;;;;;;0.30;0.30;;;16.10;99.90;;;;;;5035501;28;20044;-74
2023/08/17 02:58:41;;;;;;;0.30;0.30;;;16.10;99.90;;;;;;5033367;28;20060;-74
2023/08/17 03:01:08;;;;;;;0.40;0.40;;;16.00;99.90;;;;;;5035513;28;20124;-72
2023/08/17 03:03:34;;;;;;;0.30;0.30;;;16.10;99.90;;;;;;5033574;28;20083;-76
2023/08/17 03:06:01;;;;;;;0.30;0.30;;;16.00;99.90;;;;;;5035222;28;20038;-75
2023/08/17 03:08:26;;;;;;;0.30;0.30;;;16.00;99.90;;;;;;5035591;28;20033;-76
2023/08/17 03:10:52;;;;;;;0.45;0.45;;;16.20;99.90;;;;;;5029805;28;20033;-74
2023/08/17 03:13:17;;;;;;;0.30;0.30;;;16.00;99.90;;;;;;5027928;28;20056;-74
2023/08/17 03:15:43;;;;;;;0.30;0.30;;;16.00;99.90;;;;;;5028844;28;20037;-74
2023/08/17 03:18:09;;;;;;;0.50;0.40;;;16.00;99.90;;;;;;5016027;28;20050;-75
2023/08/17 03:20:34;;;;;;;0.30;0.30;;;16.00;99.90;;;;;;5030479;28;20084;-74
2023/08/17 03:23:00;;;;;;;0.30;0.30;;;16.00;99.90;;;;;;5021781;28;20038;-74
2023/08/17 03:25:25;;;;;;;0.30;0.30;;;15.90;99.90;;;;;;5026996;28;20052;-74
2023/08/17 03:27:51;;;;;;;0.33;0.33;;;16.00;99.90;;;;;;5026412;28;20034;-73
2023/08/17 03:30:17;;;;;;;0.30;0.30;;;16.00;99.90;;;;;;5031088;28;20125;-74
2023/08/17 03:32:42;;;;;;;0.30;0.30;;;15.90;99.90;;;;;;5023368;28;20045;-74
2023/08/17 03:35:08;;;;;;;0.30;0.30;;;15.90;99.90;;;;;;5023734;28;20496;-74
2023/08/17 03:37:34;;;;;;;0.30;0.30;;;15.90;99.90;;;;;;5015737;28;20552;-74
2023/08/17 03:40:00;;;;;;;0.30;0.30;;;15.80;99.90;;;;;;5032663;28;20037;-74
2023/08/17 03:42:26;;;;;;;0.40;0.40;;;15.90;99.90;;;;;;5023804;28;20116;-74
2023/08/17 03:44:52;;;;;;;0.30;0.30;;;15.90;99.90;;;;;;5027784;28;20391;-74
2023/08/17 03:47:18;;;;;;;0.40;0.40;;;15.90;99.90;;;;;;5016618;28;20051;-75
2023/08/17 03:49:44;;;;;;;0.40;0.40;;;16.00;99.90;;;;;;5033677;28;20051;-75
2023/08/17 03:52:10;;;;;;;0.87;0.53;;;15.90;99.90;;;;;;5020997;28;20408;-76
2023/08/17 03:54:36;;;;;;;0.35;0.35;;;15.90;99.90;;;;;;5032082;28;20084;-77
2023/08/17 03:57:02;;;;;;;0.32;0.32;;;15.90;99.90;;;;;;5015510;28;20038;-74
2023/08/17 03:59:28;;;;;;;0.40;0.40;;;15.90;99.90;;;;;;5026266;28;20100;-74
2023/08/17 04:01:53;;;;;;;0.33;0.33;;;15.90;99.90;;;;;;5033804;28;20430;-72
2023/08/17 04:04:19;;;;;;;0.30;0.30;;;15.90;99.90;;;;;;5033656;28;20524;-72
2023/08/17 04:06:45;;;;;;;0.40;0.40;;;15.80;99.90;;;;;;5017750;28;20374;-73
2023/08/17 04:09:11;;;;;;;0.40;0.40;;;15.90;99.90;;;;;;5021522;28;20367;-71
2023/08/17 04:11:36;;;;;;;0.30;0.30;;;15.90;99.90;;;;;;5032253;28;20073;-73
2023/08/17 04:14:03;;;;;;;0.50;0.50;;;15.90;99.90;;;;;;5023308;28;20528;-75
2023/08/17 04:16:29;;;;;;;0.30;0.30;;;15.90;99.90;;;;;;5027639;28;20503;-72
2023/08/17 04:18:54;;;;;;;0.30;0.30;;;15.90;99.90;;;;;;5024334;28;20049;-73
2023/08/17 04:21:20;;;;;;;0.40;0.40;;;16.00;99.90;;;;;;5033181;28;20041;-72
2023/08/17 04:23:46;;;;;;;0.40;0.40;;;16.00;99.90;;;;;;5022653;28;20145;-72
2023/08/17 04:26:12;;;;;;;0.45;0.45;;;16.00;99.90;;;;;;5047276;28;20029;-75
2023/08/17 04:28:38;;;;;;;0.40;0.40;;;16.00;99.90;;;;;;5029808;28;20034;-75
2023/08/17 04:31:04;;;;;;;0.30;0.30;;;16.00;99.90;;;;;;5021101;28;20030;-73
2023/08/17 04:33:29;;;;;;;0.30;0.30;;;16.00;99.90;;;;;;5018948;28;20105;-75
2023/08/17 04:35:55;;;;;;;0.57;0.53;;;16.00;99.90;;;;;;5033116;28;20041;-73
2023/08/17 04:38:20;;;;;;;0.40;0.40;;;16.00;99.90;;;;;;5045129;28;20034;-76
2023/08/17 04:40:46;;;;;;;1.10;0.45;;;16.00;99.90;;;;;;5033830;28;20049;-76
2023/08/17 04:43:12;;;;;;;0.70;0.40;;;16.00;99.90;;;;;;5029413;28;20045;-76
2023/08/17 04:45:37;;;;;;;0.30;0.30;;;16.00;99.90;;;;;;5033796;28;20042;-73
2023/08/17 04:48:04;;;;;;;0.67;0.37;;;16.00;99.90;;;;;;5033841;28;20509;-73
2023/08/17 04:50:29;;;;;;;0.30;0.30;;;16.00;99.90;;;;;;5033864;28;20434;-74
2023/08/17 04:52:55;;;;;;;0.40;0.40;;;16.00;99.90;;;;;;5025818;28;20105;-73
2023/08/17 04:55:21;;;;;;;0.40;0.40;;;16.10;99.90;;;;;;5033358;28;20045;-74
2023/08/17 04:57:46;;;;;;;0.30;0.30;;;16.10;99.90;;;;;;5028636;28;20427;-72
2023/08/17 05:00:13;;;;;;;0.33;0.33;;;16.10;99.90;;;;;;5014559;28;20046;-74
2023/08/17 05:02:39;;;;;;;0.22;0.22;;;16.10;99.90;;;;;;5027817;28;20053;-73
2023/08/17 05:05:06;;;;;;;0.30;0.30;;;16.10;99.90;;;;;;5026788;28;20042;-73
2023/08/17 05:07:33;;;;;;;0.30;0.30;;;16.10;99.90;;;;;;5023044;28;20033;-73
2023/08/17 05:09:58;;;;;;;0.28;0.28;;;16.10;99.90;;;;;;5022240;28;20075;-74
2023/08/17 05:12:24;;;;;;;0.40;0.40;;;16.20;99.90;;;;;;5016476;28;20421;-72
2023/08/17 05:14:50;;;;;;;0.47;0.47;;;16.20;99.90;;;;;;5029407;28;20804;-71
2023/08/17 05:17:15;;;;;;;0.50;0.50;;;16.10;99.90;;;;;;5031407;28;20049;-72
2023/08/17 05:19:41;;;;;;;0.30;0.30;;;16.10;99.90;;;;;;5033098;28;20481;-72
2023/08/17 05:22:11;;;;;;;0.30;0.30;;;16.10;99.90;;;;;;5027779;28;20117;-71
2023/08/17 05:24:36;;;;;;;;;;;16.20;99.90;;;;;;5014173;28;20038;-71
2023/08/17 05:27:02;;;;;;;0.50;0.50;;;16.20;99.90;;;;;;5032805;28;20669;-71
2023/08/17 05:29:28;;;;;;;0.40;0.40;;;16.20;99.90;;;;;;5035256;28;20038;-71
2023/08/17 05:31:53;;;;;;;0.40;0.40;;;16.20;99.90;;;;;;5013449;28;20042;-71
2023/08/17 05:34:19;;;;;;;0.30;0.30;;;16.20;99.90;;;;;;5029227;28;20087;-71
2023/08/17 05:36:45;;;;;;;0.30;0.30;;;16.20;99.90;;;;;;5016875;28;20037;-72
2023/08/17 05:39:10;;;;;;;0.30;0.30;;;16.20;99.90;;;;;;5032108;28;20044;-73
2023/08/17 05:41:36;;;;;;;0.30;0.30;;;16.30;99.90;;;;;;5029436;28;20440;-73
2023/08/17 05:44:02;;;;;;;0.47;0.40;;;16.30;99.90;;;;;;5020746;28;20072;-72
2023/08/17 05:46:27;;;;;;;0.53;0.53;;;16.30;99.90;;;;;;5025897;28;20034;-73
2023/08/17 05:48:53;;;;;;;0.47;0.43;;;16.30;99.90;;;;;;5035870;28;20048;-73
2023/08/17 05:51:19;;;;;;;0.60;0.60;;;16.30;99.90;;;;;;5036822;28;20120;-73
2023/08/17 05:53:45;;;;;;;0.30;0.30;;;16.30;99.90;;;;;;5028882;28;20041;-73
2023/08/17 05:56:10;;;;;;;0.40;0.40;;;16.40;99.90;;;;;;5029424;28;20068;-72
2023/08/17 05:58:36;;;;;;;0.40;0.40;;;16.40;99.90;;;;;;5032215;28;20045;-73
2023/08/17 06:01:07;;;;;;;0.30;0.30;;;16.40;99.90;;;;;;5023643;28;20088;-72
2023/08/17 06:03:33;;;;;;;0.30;0.30;;;16.50;99.90;;;;;;5022945;28;20041;-73
2023/08/17 06:05:59;;;;;;;0.30;0.30;;;16.50;99.90;;;;;;5016417;28;20046;-74
2023/08/17 06:08:25;;;;;;;0.50;0.50;;;16.50;99.90;;;;;;5016900;28;20052;-75
2023/08/17 06:10:50;;;;;;;0.30;0.30;;;16.50;99.90;;;;;;5016934;28;20034;-79
2023/08/17 06:13:16;;;;;;;0.47;0.30;;;16.50;99.90;;;;;;5017085;28;20301;-79
2023/08/17 06:15:41;;;;;;;0.30;0.30;;;16.60;99.90;;;;;;5020167;28;20044;-77
2023/08/17 06:18:07;;;;;;;1.30;0.93;;;16.60;99.90;;;;;;5022719;28;20420;-71
2023/08/17 06:20:33;;;;;;;0.40;0.40;;;16.60;99.90;;;;;;5039872;28;20465;-71
2023/08/17 06:22:58;;;;;;;0.30;0.30;;;16.70;99.90;;;;;;5037936;28;20393;-74
2023/08/17 06:25:25;;;;;;;0.30;0.30;;;16.70;99.90;;;;;;5033444;28;20041;-74
2023/08/17 06:27:51;;;;;;;0.30;0.30;;;16.80;99.90;;;;;;5029798;28;20045;-75
2023/08/17 06:30:18;;;;;;;0.60;0.60;;;16.80;99.90;;;;;;5026104;28;20369;-77
2023/08/17 06:32:43;;;;;;;0.40;0.40;;;16.90;99.90;;;;;;5016391;28;20044;-76
2023/08/17 06:35:10;;;;;;;0.30;0.30;;;16.90;99.90;;;;;;5032350;28;20041;-77
2023/08/17 06:37:35;;;;;;;0.30;0.30;;;16.90;99.90;;;;;;5041922;28;20046;-73
2023/08/17 06:40:05;;;;;;;0.30;0.30;;;16.90;99.90;;;;;;5048743;28;20132;-81
2023/08/17 06:42:31;;;;;;;0.50;0.50;;;16.90;99.90;;;;;;5034845;28;20030;-77
2023/08/17 06:44:57;;;;;;;0.30;0.30;;;16.90;99.90;;;;;;5025051;28;20037;-77
2023/08/17 06:47:23;;;;;;;0.30;0.30;;;16.90;99.90;;;;;;5033042;28;20041;-74
2023/08/17 06:49:48;;;;;;;1.13;0.73;;;16.90;99.90;;;;;;5014967;28;20425;-75
2023/08/17 06:52:14;;;;;;;0.30;0.30;;;17.00;99.90;;;;;;5015874;28;20478;-76
2023/08/17 06:54:40;;;;;;;0.30;0.30;;;17.00;99.90;;;;;;5016059;28;20129;-74
2023/08/17 06:57:05;;;;;;;0.30;0.30;;;17.00;99.90;;;;;;5015673;28;20125;-74
2023/08/17 06:59:33;;;;;;;0.47;0.47;;;17.10;99.90;;;;;;5016706;28;20037;-73
2023/08/17 07:01:59;;;;;;;0.47;0.40;;;17.00;99.90;;;;;;5036242;28;20533;-74
2023/08/17 07:04:25;;;;;;;0.30;0.30;;;17.10;99.90;;;;;;5016189;28;20042;-73
2023/08/17 07:06:51;;;;;;;0.30;0.30;;;17.10;99.90;;;;;;5016267;28;20677;-76
2023/08/17 07:09:16;;;;;;;0.40;0.40;;;17.10;99.90;;;;;;5031389;28;20473;-75
2023/08/17 07:11:42;;;;;;;0.40;0.40;;;17.10;99.90;;;;;;5034537;28;20033;-73
2023/08/17 07:14:08;;;;;;;0.30;0.30;;;17.10;99.90;;;;;;5032798;28;20465;-72
2023/08/17 07:16:33;;;;;;;0.30;0.30;;;17.10;99.90;;;;;;5032367;28;20073;-73
2023/08/17 07:18:59;;;;;;;0.30;0.30;;;17.10;99.90;;;;;;5038739;28;20065;-71
2023/08/17 07:21:25;;;;;;;0.50;0.50;;;17.10;99.90;;;;;;5034607;28;20053;-75
2023/08/17 07:23:53;;;;;;;0.20;0.20;;;17.10;99.90;;;;;;5034378;28;20084;-83
2023/08/17 07:26:20;;;;;;;0.30;0.30;;;17.10;99.90;;;;;;5033450;28;20038;-72
2023/08/17 07:28:46;;;;;;;0.50;0.50;;;17.20;99.90;;;;;;5033496;28;20041;-72
2023/08/17 07:31:12;;;;;;;0.30;0.30;;;17.20;99.90;;;;;;5029899;28;20080;-72
2023/08/17 07:33:38;;;;;;;0.30;0.30;;;17.20;99.90;;;;;;5034160;28;20472;-71
2023/08/17 07:36:06;;;;;;;0.55;0.32;;;17.20;99.90;;;;;;5034329;28;20045;-72
2023/08/17 07:38:32;;;;;;;0.30;0.30;;;17.20;99.90;;;;;;5033366;28;20425;-77
2023/08/17 07:40:59;;;;;;;0.30;0.30;;;17.30;99.90;;;;;;5032018;28;20037;-72
2023/08/17 07:43:24;;;;;;;0.50;0.50;;;17.30;99.90;;;;;;5031069;28;20103;-72
2023/08/17 07:45:59;;;;;;;1.07;0.77;;;17.30;99.90;;;;;;5045442;28;20570;-73
2023/08/17 07:48:25;;;;;;;0.30;0.30;;;17.30;99.90;;;;;;5031057;28;20454;-75
2023/08/17 07:50:51;;;;;;;0.30;0.30;;;17.30;99.90;;;;;;5027205;28;20037;-72
2023/08/17 07:53:18;;;;;;;0.30;0.30;;;17.40;99.90;;;;;;5047197;28;20106;-73
2023/08/17 07:55:44;;;;;;;0.60;0.30;;;17.50;99.90;;;;;;5033439;28;20033;-73
2023/08/17 07:58:10;;;;;;;0.30;0.30;;;17.50;99.90;;;;;;5030284;28;20036;-76
2023/08/17 08:00:36;;;;;;;0.30;0.30;;;17.50;99.90;;;;;;5034914;28;20058;-78
2023/08/17 08:03:01;;;;;;;0.30;0.30;;;17.50;99.90;;;;;;5033114;28;20522;-78
2023/08/17 08:05:27;;;;;;;0.30;0.30;;;17.50;99.90;;;;;;5033590;28;20453;-78
2023/08/17 08:07:53;;;;;;;0.30;0.30;;;17.50;99.90;;;;;;5024111;28;20034;-79
2023/08/17 08:10:19;;;;;;;0.30;0.30;;;17.50;99.90;;;;;;5014603;28;20449;-77
2023/08/17 08:12:44;;;;;;;0.47;0.40;;;17.60;99.90;;;;;;5027977;28;20072;-79
2023/08/17 08:15:10;;;;;;;0.50;0.50;;;17.60;99.90;;;;;;5030666;28;20041;-76
2023/08/17 08:17:36;;;;;;;0.60;0.40;;;17.70;99.90;;;;;;5027737;28;20084;-74
2023/08/17 08:20:03;;;;;;;0.40;0.38;;;17.70;99.90;;;;;;5032828;28;20080;-74
2023/08/17 08:22:29;;;;;;;0.40;0.40;;;17.70;99.90;;;;;;5022661;28;20037;-77
2023/08/17 08:24:55;;;;;;;0.30;0.30;;;17.80;99.90;;;;;;5030635;28;20044;-73
2023/08/17 08:27:21;;;;;;;0.30;0.30;;;17.80;99.90;;;;;;5039804;28;20033;-77
2023/08/17 08:29:47;;;;;;;0.30;0.30;;;17.90;99.90;;;;;;5030463;28;20052;-77
2023/08/17 08:32:13;;;;;;;0.37;0.37;;;17.90;99.90;;;;;;5035227;28;20114;-78
2023/08/17 08:34:38;;;;;;;0.30;0.30;;;17.90;99.90;;;;;;5028564;28;20044;-78
2023/08/17 08:37:04;;;;;;;0.50;0.50;;;18.00;99.90;;;;;;5023715;28;20049;-80
2023/08/17 08:39:30;;;;;;;0.30;0.30;;;18.10;99.90;;;;;;5028603;28;20086;-73
2023/08/17 08:41:56;;;;;;;0.30;0.30;;;18.10;99.90;;;;;;5022929;28;20463;-72
2023/08/17 08:44:22;;;;;;;0.30;0.30;;;18.10;99.90;;;;;;5026925;28;20033;-72
2023/08/17 08:46:48;;;;;;;0.30;0.30;;;18.10;99.90;;;;;;5032660;28;20541;-71
2023/08/17 08:49:19;;;;;;;0.30;0.30;;;18.20;99.90;;;;;;5032794;28;20128;-73
2023/08/17 08:51:49;;;;;;;0.20;0.20;;;18.20;99.90;;;;;;5033483;28;20045;-73
2023/08/17 08:54:20;;;;;;;1.48;0.63;;;18.30;99.90;;;;;;5033139;28;20037;-73
2023/08/17 08:56:49;;;;;;;0.30;0.30;;;18.40;99.90;;;;;;5033437;28;20368;-72
2023/08/17 08:59:16;;;;;;;0.30;0.30;;;18.50;99.90;;;;;;5033411;28;20393;-71
2023/08/17 09:01:42;;;;;;;0.35;0.35;;;18.50;99.90;;;;;;5033553;28;20041;-72
2023/08/17 09:04:08;;;;;;;0.77;0.57;;;18.60;99.90;;;;;;5033340;28;20072;-73
2023/08/17 09:06:34;;;;;;;0.30;0.30;;;18.60;99.90;;;;;;5033021;28;20479;-73
2023/08/17 09:09:02;;;;;;;0.40;0.40;;;18.70;99.90;;;;;;5048574;28;20430;-73
2023/08/17 09:11:28;;;;;;;0.20;0.20;;;18.70;99.90;;;;;;5033141;28;20045;-74
2023/08/17 09:13:54;;;;;;;0.30;0.30;;;18.80;99.90;;;;;;5033453;28;20051;-73
2023/08/17 09:16:20;;;;;;;0.30;0.30;;;18.80;99.90;;;;;;5033116;28;20041;-72
2023/08/17 09:18:46;;;;;;;0.30;0.30;;;18.90;99.90;;;;;;5033112;28;20624;-75
2023/08/17 09:21:22;;;;;;;0.40;0.40;;;19.00;99.90;;;;;;5037561;28;20087;-73
2023/08/17 09:23:55;;;;;;;0.45;0.45;;;19.00;99.90;;;;;;5037321;28;20397;-73
2023/08/17 09:26:24;;;;;;;0.50;0.50;;;19.00;99.90;;;;;;5037045;28;20041;-73
2023/08/17 09:28:51;;;;;;;0.30;0.30;;;19.00;99.90;;;;;;5037338;28;20120;-73
2023/08/17 09:31:21;;;;;;;1.20;0.35;;;18.90;99.90;;;;;;5037140;28;20120;-73
2023/08/17 09:33:51;;;;;;;0.50;0.50;;;18.80;99.90;;;;;;5037210;28;20037;-74
2023/08/17 09:36:25;;;;;;;0.45;0.30;;;18.80;99.90;;;;;;5037154;28;20038;-75
2023/08/17 09:38:51;;;;;;;0.30;0.30;;;18.80;99.90;;;;;;5036922;28;20037;-72
2023/08/17 09:41:17;;;;;;;0.30;0.30;;;18.70;99.90;;;;;;5037122;28;20048;-74
2023/08/17 09:43:44;;;;;;;0.30;0.30;;;18.70;99.90;;;;;;5036910;28;20041;-75
2023/08/17 09:46:10;;;;;;;0.30;0.30;;;18.70;99.90;;;;;;5036808;28;20048;-72
2023/08/17 09:48:36;;;;;;;0.40;0.40;;;18.70;99.90;;;;;;5036457;28;20038;-72
2023/08/17 09:51:02;;;;;;;0.30;0.30;;;18.70;99.90;;;;;;5036876;28;20087;-75
2023/08/17 09:53:28;;;;;;;0.30;0.30;;;18.70;99.90;;;;;;5036630;28;20049;-73
2023/08/17 09:55:55;;;;;;;0.30;0.30;;;18.70;99.90;;;;;;5037095;28;20038;-72
2023/08/17 09:58:20;;;;;;;0.30;0.30;;;18.70;99.90;;;;;;5036572;28;20045;-72
2023/08/17 10:00:49;;;;;;;0.30;0.30;;;18.70;99.90;;;;;;5036544;28;20045;-72
2023/08/17 10:03:15;;;;;;;0.30;0.30;;;18.70;99.90;;;;;;5036238;28;20392;-73
2023/08/17 10:05:43;;;;;;;;;;;18.80;99.90;;;;;;5037075;28;20045;-72
2023/08/17 10:08:10;;;;;;;0.30;0.30;;;18.80;99.90;;;;;;5036252;28;19917;-72
2023/08/17 10:10:42;;;;;;;0.55;0.40;;;18.90;99.90;;;;;;5036438;28;20041;-72
2023/08/17 10:13:13;;;;;;;0.30;0.30;;;18.90;99.90;;;;;;5036496;28;20037;-73
2023/08/17 10:15:53;;;;;;;0.30;0.30;;;18.90;99.90;;;;;;5036011;28;20543;-72
2023/08/17 10:18:43;;;;;;;0.30;0.30;;;19.00;99.90;;;;;;5036075;28;20049;-75
2023/08/17 10:21:28;;;;;;;0.20;0.20;;;19.00;99.90;;;;;;5035965;28;20053;-72
2023/08/17 10:23:56;;;;;;;0.30;0.30;;;19.00;99.90;;;;;;5036191;28;20095;-72
2023/08/17 10:26:23;;;;;;;1.63;0.80;;;19.20;99.90;;;;;;5035958;28;20045;-71
2023/08/17 10:28:50;;;;;;;;;;;19.20;99.90;;;;;;5036630;28;20047;-73
2023/08/17 10:31:16;;;;;;;0.30;0.30;;;19.20;99.90;;;;;;5035608;28;19931;-72
2023/08/17 10:33:45;;;;;;;0.30;0.30;;;19.30;99.90;;;;;;5035996;28;20037;-73
2023/08/17 10:36:13;;;;;;;0.40;0.40;;;19.30;99.90;;;;;;5036117;28;20088;-73
2023/08/17 10:38:39;;;;;;;0.30;0.30;;;19.20;99.90;;;;;;5035520;28;20125;-73
2023/08/17 10:41:10;;;;;;;0.30;0.30;;;19.30;99.90;;;;;;5034658;28;20136;-74
2023/08/17 10:43:56;;;;;;;0.30;0.30;;;19.40;99.90;;;;;;5035661;28;20033;-73
2023/08/17 10:46:32;;;;;;;0.22;0.22;;;19.40;99.90;;;;;;5035967;28;20183;-74
2023/08/17 10:49:03;;;;;;;0.85;0.60;;;19.40;99.90;;;;;;5034120;28;20528;-72
2023/08/17 10:51:28;;;;;;;0.30;0.30;;;19.40;99.90;;;;;;5035598;28;20067;-73
2023/08/17 10:53:59;;;;;;;0.50;0.50;;;19.30;99.90;;;;;;5035705;28;20132;-73
2023/08/17 10:56:27;;;;;;;0.75;0.30;;;19.30;99.90;;;;;;5035700;28;20045;-73
2023/08/17 10:58:53;;;;;;;0.30;0.30;;;19.30;99.90;;;;;;5034629;28;20116;-74
2023/08/17 11:01:40;;;;;;;0.70;0.38;;;19.50;99.90;;;;;;5034242;28;20037;-74
2023/08/17 11:04:16;;;;;;;0.30;0.30;;;19.50;99.90;;;;;;5034302;28;20045;-73
2023/08/17 11:06:45;;;;;;;0.50;0.50;;;19.60;99.90;;;;;;5033674;28;20490;-74
2023/08/17 11:09:11;;;;;;;0.30;0.30;;;19.60;99.90;;;;;;5034021;28;20087;-73
2023/08/17 11:11:37;;;;;;;0.20;0.20;;;19.50;99.90;;;;;;5033935;28;20048;-74
2023/08/17 11:14:03;;;;;;;0.40;0.30;;;19.50;99.90;;;;;;5034027;28;20041;-73
2023/08/17 11:16:29;;;;;;;0.30;0.30;;;19.50;99.90;;;;;;5034970;28;20095;-73
2023/08/17 11:18:58;;;;;;;0.40;0.40;;;19.60;99.90;;;;;;5035563;28;20049;-74
2023/08/17 11:21:24;;;;;;;0.30;0.30;;;19.60;99.90;;;;;;5035074;28;20057;-73
2023/08/17 11:23:50;;;;;;;0.30;0.30;;;19.80;99.90;;;;;;5035162;28;20156;-73
2023/08/17 11:26:17;;;;;;;0.30;0.30;;;19.90;99.90;;;;;;5035198;28;20048;-74
2023/08/17 11:28:44;;;;;;;0.30;0.30;;;20.00;99.90;;;;;;5035399;28;20067;-73
2023/08/17 11:31:12;;;;;;;0.35;0.35;;;20.10;99.90;;;;;;5034597;28;20045;-73
2023/08/17 11:33:39;;;;;;;0.32;0.32;;;20.00;99.90;;;;;;5034915;28;20460;-72
2023/08/17 11:36:06;;;;;;;0.60;0.60;;;20.00;99.90;;;;;;5034624;28;20091;-74
2023/08/17 11:38:37;;;;;;;0.40;0.40;;;20.00;99.90;;;;;;5034612;28;20037;-74
2023/08/17 11:41:03;;;;;;;0.20;0.20;;;20.10;99.90;;;;;;5035347;28;20099;-74
2023/08/17 11:43:32;;;;;;;0.50;0.30;;;20.10;99.90;;;;;;5033624;28;20045;-73
2023/08/17 11:46:00;;;;;;;0.25;0.25;;;20.10;99.90;;;;;;5034732;28;20041;-74
2023/08/17 11:48:27;;;;;;;0.47;0.40;;;20.10;99.90;;;;;;5034679;28;20423;-73
2023/08/17 11:50:52;;;;;;;;;;;20.10;99.90;;;;;;5034634;28;20053;-73
2023/08/17 11:53:18;;;;;;;0.32;0.32;;;20.00;99.90;;;;;;5034720;28;20354;-74
2023/08/17 11:55:44;;;;;;;0.40;0.40;;;20.00;99.90;;;;;;5034255;28;20469;-72
2023/08/17 11:58:10;;;;;;;0.30;0.30;;;20.00;99.90;;;;;;5034029;28;20448;-73
2023/08/17 12:00:39;;;;;;;0.20;0.20;;;20.00;99.90;;;;;;5034565;28;20041;-74
2023/08/17 12:03:05;;;;;;;0.43;0.43;;;20.00;99.90;;;;;;5034506;28;20068;-74
2023/08/17 12:05:32;;;;;;;0.47;0.47;;;19.90;99.90;;;;;;5034223;28;20462;-73
2023/08/17 12:08:00;;;;;;;0.45;0.40;;;19.90;99.90;;;;;;5034067;28;20303;-73
2023/08/17 12:10:34;;;;;;;0.38;0.38;;;19.90;99.90;;;;;;5034304;28;20042;-73
2023/08/17 12:13:00;;;;;;;0.40;0.40;;;20.00;99.90;;;;;;5033874;28;20187;-74
2023/08/17 12:15:35;;;;;;;0.30;0.30;;;20.00;99.90;;;;;;5034355;28;20393;-74
2023/08/17 12:18:03;;;;;;;0.30;0.30;;;20.00;99.90;;;;;;5034177;28;20053;-73
2023/08/17 12:20:29;;;;;;;0.40;0.40;;;20.00;99.90;;;;;;5033923;28;20045;-73
2023/08/17 12:22:58;;;;;;;0.30;0.30;;;20.00;99.90;;;;;;5033826;28;20037;-73
2023/08/17 12:25:24;;;;;;;0.30;0.30;;;19.90;99.90;;;;;;5033827;28;20037;-72
2023/08/17 12:27:50;;;;;;;0.30;0.30;;;20.00;99.90;;;;;;5034239;28;20054;-72
2023/08/17 12:30:26;;;;;;;0.20;0.20;;;19.90;99.90;;;;;;5034018;28;20044;-74
2023/08/17 12:32:51;;;;;;;0.40;0.40;;;19.90;99.90;;;;;;5033657;28;20050;-73
2023/08/17 12:35:17;;;;;;;0.40;0.40;;;20.00;99.90;;;;;;5033718;28;20041;-73
2023/08/17 12:37:43;;;;;;;0.40;0.40;;;20.00;99.90;;;;;;5033626;28;20446;-74
2023/08/17 12:40:09;;;;;;;0.20;0.20;;;20.10;99.90;;;;;;5033600;28;20124;-74
2023/08/17 12:42:35;;;;;;;0.32;0.32;;;20.20;99.90;;;;;;5033656;28;20037;-73
2023/08/17 12:45:01;;;;;;;0.30;0.30;;;20.20;99.90;;;;;;5033629;28;20048;-74
2023/08/17 12:47:27;;;;;;;0.33;0.33;;;20.30;99.90;;;;;;5033506;28;20462;-73